• Join FlightAware (Why Join?)
  • Login
  • US Flag 
09:16PM EDT


 

Airport Tracker/Info


-or-


 

Live Flight TrackerFlight Track Log ✈ EJA396 ✈ 27-Jul-2013 ✈ KHOU - KTVC

Flight Track Log - Related Links

Times and Time Zones

All times are in EDT time to prevent confusion due to time zone crossing. See the EJA396 flight status page for this flight to view local times or setup timezone preferences in your user account.

Time Position Orientation Groundspeed Altitude Reporting Facility
EDT Latitude Longitude Course Direction KTS MPH feet Rate Location/Type
11:14AM 29.6333 -95.2653 52° Northeast 157 181 800  Level Houston Center
11:15AM 29.6681 -95.2147 52° Northeast 256 295 4,400 3,120 Climbing Houston Center
11:16AM 29.7364 -95.2353 345° North 256 295 7,700 3,120 Climbing Houston Center
11:17AM 29.8119 -95.2600 344° North 273 314 10,800 2,700 Climbing Houston Center
11:18AM 29.9006 -95.2583 North 316 364 13,400 2,400 Climbing Houston Center
11:19AM 29.9917 -95.2525 North 325 374 15,800 2,280 Climbing Houston Center
11:20AM 30.0883 -95.2453 North 343 395 18,100 2,100 Climbing Houston Center
11:21AM 30.1836 -95.2389 North 343 395 20,200 1,920 Climbing Houston Center
11:22AM 30.2806 -95.2275 North 348 400 22,100 1,800 Climbing Houston Center
11:23AM 30.3989 -95.1806 19° North 373 429 24,000 1,500 Climbing Houston Center
11:24AM 30.4861 -95.1414 21° North 380 437 25,300 1,500 Climbing Houston Center
11:25AM 30.6011 -95.0678 29° Northeast 392 451 27,100 1,560 Climbing Houston Center
11:26AM 30.6994 -95.0075 28° Northeast 398 458 28,600 1,440 Climbing Houston Center
11:27AM 30.7981 -94.9456 28° Northeast 399 459 30,100 1,440 Climbing Houston Center
11:28AM 30.8975 -94.8831 28° Northeast 405 466 31,600 1,440 Climbing Houston Center
11:29AM 30.9961 -94.8219 28° Northeast 402 463 33,100 1,440 Climbing Houston Center
11:30AM 31.0922 -94.7606 29° Northeast 396 456 34,600 1,200 Climbing Houston Center
11:31AM 31.1992 -94.6928 28° Northeast 401 461 35,700 1,020 Climbing Houston Center
11:32AM 31.2983 -94.6214 32° Northeast 399 459 36,700 780 Climbing Houston Center
11:33AM 31.3928 -94.5575 30° Northeast 398 458 37,300 480 Climbing Houston Center
11:34AM 31.4897 -94.4911 30° Northeast 401 461 37,800 480 Climbing Houston Center
11:35AM 31.6075 -94.4092 31° Northeast 409 471 38,400 480 Climbing Houston Center
11:36AM 31.7064 -94.3406 31° Northeast 411 473 38,900 480 Climbing Houston Center
11:37AM 31.8044 -94.2717 31° Northeast 411 473 39,400 480 Climbing Houston Center
11:38AM 31.9094 -94.2003 30° Northeast 413 475 39,900 480 Climbing Fort Worth Center
11:39AM 32.0058 -94.1306 32° Northeast 413 475 40,400 480 Climbing Fort Worth Center
11:40AM 32.1061 -94.0608 30° Northeast 413 475 40,900 300 Climbing Fort Worth Center
11:41AM 32.1819 -94.0064 31° Northeast 408 470 41,000  Climbing Fort Worth Center
11:42AM 32.2883 -93.9289 32° Northeast 408 470 41,000  Level Fort Worth Center
11:43AM 32.3886 -93.8561 31° Northeast 408 470 41,000  Level Fort Worth Center
11:44AM 32.4867 -93.7858 31° Northeast 408 470 41,000  Level Fort Worth Center
11:45AM 32.5869 -93.7150 31° Northeast 413 475 41,000  Level Fort Worth Center
11:46AM 32.6953 -93.6367 31° Northeast 413 475 41,000  Level Fort Worth Center
11:47AM 32.7933 -93.5658 31° Northeast 413 475 41,000  Level Fort Worth Center
11:48AM 32.8914 -93.4972 30° Northeast 413 475 41,000  Level Fort Worth Center
11:49AM 32.9894 -93.4261 31° Northeast 413 475 41,000  Level Fort Worth Center
11:50AM 33.0853 -93.3550 32° Northeast 408 470 41,000  Level Fort Worth Center
11:51AM 33.1872 -93.2856 30° Northeast 408 470 41,000  Level Fort Worth Center
11:52AM 33.2831 -93.2142 32° Northeast 408 470 41,000  Level Fort Worth Center
11:53AM 33.3808 -93.1422 32° Northeast 413 475 41,000  Level Fort Worth Center
11:54AM 33.4786 -93.0728 31° Northeast 413 475 41,000  Level Fort Worth Center
11:55AM 33.5325 -93.0336 31° Northeast 434 499 41,000  Level Memphis Center
11:56AM 33.6300 -92.9619 31° Northeast 439 505 41,000  Level Memphis Center
11:57AM 33.7297 -92.8900 31° Northeast 427 491 41,000  Level Memphis Center
11:58AM 33.8250 -92.8203 31° Northeast 416 479 41,000  Level Memphis Center
11:59AM 33.9225 -92.7503 31° Northeast 416 479 41,000  Level Memphis Center
12:00PM 34.0197 -92.6778 32° Northeast 411 473 41,000  Level Memphis Center
12:01PM 34.1236 -92.5953 33° Northeast 405 466 41,000  Level Memphis Center
12:02PM 34.2186 -92.5250 31° Northeast 405 466 41,000  Level Memphis Center
12:03PM 34.3158 -92.4519 32° Northeast 400 460 41,000  Level Memphis Center
12:04PM 34.4153 -92.3764 32° Northeast 407 468 41,000  Level Memphis Center
12:05PM 34.5103 -92.3056 32° Northeast 412 474 41,000  Level Memphis Center
12:06PM 34.6094 -92.2294 32° Northeast 412 474 41,000  Level Memphis Center
12:07PM 34.7086 -92.1558 31° Northeast 412 474 41,000  Level Memphis Center
12:08PM 34.8036 -92.0819 33° Northeast 412 474 41,000  Level Memphis Center
12:09PM 34.8942 -92.0131 32° Northeast 415 478 41,000  Level Memphis Center
12:10PM 34.9911 -91.9389 32° Northeast 415 478 41,000  Level Memphis Center
12:11PM 35.0881 -91.8619 33° Northeast 415 478 41,000  Level Memphis Center
12:12PM 35.1892 -91.7850 32° Northeast 415 478 41,000  Level Memphis Center
12:13PM 35.2881 -91.7078 33° Northeast 415 478 41,000  Level Memphis Center
12:14PM 35.3867 -91.6331 32° Northeast 415 478 41,000  Level Memphis Center
12:15PM 35.4878 -91.5556 32° Northeast 415 478 41,000  Level Memphis Center
12:16PM 35.5864 -91.4778 33° Northeast 420 483 41,000  Level Memphis Center
12:17PM 35.6872 -91.4025 31° Northeast 420 483 41,000  Level Memphis Center
12:18PM 35.7817 -91.3242 34° Northeast 414 476 41,000  Level Memphis Center
12:19PM 35.8803 -91.2461 33° Northeast 420 483 41,000  Level Memphis Center
12:20PM 35.9831 -91.1650 33° Northeast 425 489 41,000  Level Memphis Center
12:21PM 36.0856 -91.0864 32° Northeast 425 489 41,000  Level Memphis Center
12:22PM 36.1944 -91.0000 33° Northeast 430 495 41,000  Level Memphis Center
12:23PM 36.2969 -90.9158 33° Northeast 430 495 41,000  Level Memphis Center
12:24PM 36.3994 -90.8364 32° Northeast 435 501 41,000  Level Memphis Center
12:25PM 36.5042 -90.7544 32° Northeast 435 501 41,000  Level Memphis Center
12:26PM 36.6022 -90.6722 34° Northeast 435 501 41,000  Level Memphis Center
12:27PM 36.7067 -90.5897 32° Northeast 435 501 41,000  Level Memphis Center
12:28PM 36.8108 -90.5072 32° Northeast 435 501 41,000  Level Memphis Center
12:29PM 36.9153 -90.4244 32° Northeast 435 501 41,000  Level Memphis Center
12:30PM 37.0386 -90.3158 35° Northeast 449 517 41,000  Level Kansas City Center
12:31PM 37.1436 -90.2289 33° Northeast 449 517 41,000  Level Kansas City Center
12:32PM 37.2483 -90.1433 33° Northeast 448 516 41,000  Level Kansas City Center
12:33PM 37.3544 -90.0558 33° Northeast 451 519 41,000  Level Kansas City Center
12:34PM 37.4611 -89.9667 34° Northeast 456 525 41,000  Level Kansas City Center
12:35PM 37.5667 -89.8786 33° Northeast 455 524 41,000  Level Kansas City Center
12:36PM 37.6861 -89.7794 33° Northeast 457 526 41,000  Level Kansas City Center
12:38PM 37.7928 -89.6897 34° Northeast 460 529 41,000  Level Kansas City Center
12:39PM 37.9175 -89.5850 34° Northeast 466 536 41,000  Level Kansas City Center
12:40PM 38.0242 -89.4953 34° Northeast 464 534 41,000  Level Kansas City Center
12:41PM 38.1389 -89.3983 34° Northeast 462 532 41,000  Level Kansas City Center
12:42PM 38.2453 -89.3078 34° Northeast 462 532 41,000  Level Kansas City Center
12:43PM 38.3606 -89.2092 34° Northeast 464 534 41,000  Level Kansas City Center
12:44PM 38.4675 -89.1189 33° Northeast 464 534 41,000  Level Kansas City Center
12:45PM 38.5839 -89.0228 33° Northeast 464 534 41,000  Level Kansas City Center
12:46PM 38.6922 -88.9328 33° Northeast 465 535 41,000  Level Kansas City Center
12:47PM 38.8011 -88.8428 33° Northeast 467 537 41,000  Level Kansas City Center
12:48PM 38.9100 -88.7511 33° Northeast 468 539 41,000  Level Kansas City Center
12:49PM 39.0167 -88.6600 34° Northeast 467 537 41,000  Level Kansas City Center
12:50PM 39.1269 -88.5678 33° Northeast 465 535 41,000  Level Kansas City Center
12:51PM 39.2375 -88.4728 34° Northeast 468 539 41,000  Level Kansas City Center
12:52PM 39.3697 -88.3606 33° Northeast 470 541 41,000  Level Kansas City Center
12:53PM 39.4786 -88.2669 34° Northeast 469 540 41,000  Level Kansas City Center
12:54PM 39.5878 -88.1739 33° Northeast 468 539 41,000  Level Kansas City Center
12:55PM 39.6703 -88.1017 34° Northeast 472 543 41,000  Level Indianapolis Center
12:56PM 39.7806 -88.0069 33° Northeast 474 545 41,000  Level Indianapolis Center
12:57PM 39.8889 -87.9114 34° Northeast 472 543 41,000  Level Indianapolis Center
12:58PM 40.0003 -87.8153 33° Northeast 476 548 41,000  Level Indianapolis Center
12:59PM 40.1100 -87.7189 34° Northeast 476 548 41,000  Level Indianapolis Center
01:00PM 40.2192 -87.6228 34° Northeast 474 545 41,000  Level Indianapolis Center
01:01PM 40.3531 -87.5061 34° Northeast 478 550 41,000  Level Indianapolis Center
01:02PM 40.4664 -87.4153 31° Northeast 477 549 41,000  Level Indianapolis Center
01:02PM 40.5100 -87.3794 32° Northeast 477 549 41,000  Level Chicago Center
01:04PM 40.6228 -87.2869 32° Northeast 480 552 41,000  Level Chicago Center
01:05PM 40.7589 -87.1739 32° Northeast 486 559 41,000  Level Chicago Center
01:06PM 40.8719 -87.0797 32° Northeast 484 557 41,000  Level Chicago Center
01:07PM 40.9847 -86.9861 32° Northeast 485 558 41,000  Level Chicago Center
01:08PM 41.0981 -86.8917 32° Northeast 485 558 41,000  Level Chicago Center
01:09PM 41.2333 -86.7778 32° Northeast 485 558 41,000  Level Chicago Center
01:10PM 41.3500 -86.7161 22° Northeast 473 544 41,000  Level Chicago Center
01:11PM 41.4764 -86.6742 14° North 469 540 41,000  Level Chicago Center
01:12PM 41.6050 -86.6342 13° North 471 542 41,000  Level Chicago Center
01:13PM 41.7314 -86.5931 14° North 469 540 41,000  Level Chicago Center
01:14PM 41.8597 -86.5528 13° North 471 542 41,000 -540 Level Chicago Center
01:15PM 42.0142 -86.5042 13° North 474 545 39,900 -1,020 Descending Chicago Center
01:16PM 42.1486 -86.4586 14° North 490 564 38,900 -960 Descending Chicago Center
01:17PM 42.2842 -86.4147 13° North 499 574 37,900 -960 Descending Chicago Center
01:18PM 42.4300 -86.3683 13° North 507 583 36,900 -1,020 Descending Chicago Center
01:19PM 42.5681 -86.3236 13° North 510 587 35,900 -1,020 Descending Chicago Center
01:20PM 42.7058 -86.2792 13° North 508 585 34,900 -1,020 Descending Chicago Center
01:21PM 42.8467 -86.2322 14° North 517 595 33,900 -1,020 Descending Chicago Center
01:22PM 42.9900 -86.1844 14° North 522 601 32,800 -1,020 Descending Chicago Center
01:23PM 43.1364 -86.1344 14° North 523 602 31,800 -1,140 Descending Chicago Center
01:24PM 43.2800 -86.0861 14° North 523 602 30,500 -1,680 Descending Chicago Center
01:25PM 43.4483 -86.0292 14° North 517 595 28,400 -1,860 Descending Chicago Center
01:26PM 43.5856 -85.9825 14° North 510 587 26,700 -1,680 Descending Chicago Center
01:27PM 43.7200 -85.9358 14° North 505 581 25,000 -1,740 Descending Minneapolis Center
01:28PM 43.8481 -85.8931 14° North 483 556 23,100 -1,920 Descending Minneapolis Center
01:29PM 43.9642 -85.8544 13° North 437 503 21,100 -1,800 Descending Minneapolis Center
01:30PM 44.0511 -85.8033 23° Northeast 427 491 19,500 -2,760 Descending Minneapolis Center
01:31PM 44.1922 -85.7169 24° Northeast 399 459 15,500 -2,820 Descending Minneapolis Center
01:34PM 44.3731 -85.6167 22° Northeast 356 410 10,800 -2,160 Descending Minneapolis Center
01:35PM 44.4506 -85.5628 26° Northeast 334 384 8,900 -1,860 Descending Minneapolis Center
01:36PM 44.5194 -85.4986 34° Northeast 311 358 7,000 -2,220 Descending Minneapolis Center
01:37PM 44.5969 -85.4250 34° Northeast 294 338 4,400 -2,100 Descending Minneapolis Center
01:38PM 44.6575 -85.3675 34° Northeast 281 323 2,700 -840 Descending Minneapolis Center
01:39PM 44.7125 -85.3314 25° Northeast 255 293 2,700  Level Minneapolis Center
01:40PM 44.7314 -85.3803 299° West 216 249 2,700 -240 Level Minneapolis Center
01:41PM 44.7353 -85.4472 275° West 168 193 2,300 -600 Descending Minneapolis Center
01:42PM 44.7375 -85.5017 273° West 137 158 1,500 -540 Descending Minneapolis Center
01:43PM 44.7394 -85.5394 274° West 127 146 1,200 -300 Descending Minneapolis Center